Tyngsboro, Massachusetts
Current Conditions -  °F | °C
As of 2:51 AM on Saturday 20 Dec 2014 (Local Time) from KASH Reporting Station
Clear Clear  
Wind Chill: 23°   Ceiling: Unl
Heat Index: 23°   Visibility: 10mi
Dew Point: 20°   Wind: 3mph
Humidity: 89%   Direction: 320°NW
Pressure: 30.2"   Gusts: NA
Location:  42.68°N, 71.42°W
Report Text: KASH 200751Z AUTO 32003KT 10SM CLR M05/M07 A3020 RMK AO2 T10501066 SLP489
Loading
Personal Weather Stations






























Interactive Weather Map New forecast layout! Learn more

10-Day Weather Forecast

Advertisements
Track Severe Weather on mobile